Archival Weather

Snohomish County (Paine Fld)

Everett, Washington (KPAE)

Report from: Thursday, November 16, 2023 5:21 AM PST
Current time: Monday, June 17, 2024 1:06 AM PDT

Current weather – Weather history – Daily summaries
Weather forecast

Present weatherMist
Temperature1.7°C (35.1°F)
Wind chill-1.5°C (29.2°F)
Dew point0.6°C (33.1°F)
Winds 6 kts (3.1 m/s, 6.9 mph) North (10°)
Visibility3 mi. (4.8 km)
Clouds Ceiling: Overcast 100 ft. (30 m)
Altimeter30.09 in.Hg (1019 mB)
Relative humidity92 %
Density altitude-1,718 ft. (-524 m)
Remarks Fully automated report
Automated weather observing station with precipitation discriminator
Flight conditions Low Instrument Meteorological Conditions
Raw dataKPAE 161321Z AUTO 01006KT 3SM R16R/2800VP6000FT BR OVC001 02/01 A3009 RMK AO2 T00170006
An error has occurred. This application may no longer respond until reloaded. Reload 🗙